sensor_id;sensor_type;location;lat;lon;timestamp;pressure;altitude;pressure_sealevel;temperature;humidity
58875;BME280;44652;49.040;12.126;2023-10-19T00:01:08;96221.84;;;6.72;100.00
58875;BME280;44652;49.040;12.126;2023-10-19T00:03:37;96218.88;;;6.53;100.00
58875;BME280;44652;49.040;12.126;2023-10-19T00:06:03;96231.03;;;6.50;100.00
58875;BME280;44652;49.040;12.126;2023-10-19T00:08:31;96223.47;;;6.65;100.00
58875;BME280;44652;49.040;12.126;2023-10-19T00:11:09;96226.94;;;6.64;100.00
58875;BME280;44652;49.040;12.126;2023-10-19T00:13:38;96196.13;;;6.48;100.00
58875;BME280;44652;49.040;12.126;2023-10-19T00:16:07;96200.34;;;6.43;100.00
58875;BME280;44652;49.040;12.126;2023-10-19T00:18:39;96221.34;;;6.46;100.00
58875;BME280;44652;49.040;12.126;2023-10-19T00:21:09;96200.09;;;6.29;100.00
58875;BME280;44652;49.040;12.126;2023-10-19T00:23:53;96198.81;;;6.52;100.00
58875;BME280;44652;49.040;12.126;2023-10-19T00:26:24;96191.84;;;6.53;100.00
58875;BME280;44652;49.040;12.126;2023-10-19T00:29:00;96179.63;;;6.53;100.00
58875;BME280;44652;49.040;12.126;2023-10-19T00:31:31;96163.44;;;6.27;100.00
58875;BME280;44652;49.040;12.126;2023-10-19T00:34:03;96174.31;;;6.49;100.00
58875;BME280;44652;49.040;12.126;2023-10-19T00:36:30;96153.16;;;6.38;100.00
58875;BME280;44652;49.040;12.126;2023-10-19T00:38:58;96162.78;;;6.39;100.00
58875;BME280;44652;49.040;12.126;2023-10-19T00:41:27;96169.66;;;6.34;100.00
58875;BME280;44652;49.040;12.126;2023-10-19T00:43:58;96165.66;;;6.53;100.00
58875;BME280;44652;49.040;12.126;2023-10-19T00:46:38;96155.47;;;6.68;100.00
58875;BME280;44652;49.040;12.126;2023-10-19T00:49:06;96131.72;;;6.57;100.00
58875;BME280;44652;49.040;12.126;2023-10-19T00:51:37;96160.03;;;6.80;100.00
58875;BME280;44652;49.040;12.126;2023-10-19T00:54:11;96138.03;;;6.70;100.00
58875;BME280;44652;49.040;12.126;2023-10-19T00:56:46;96140.03;;;6.83;100.00
58875;BME280;44652;49.040;12.126;2023-10-19T00:59:19;96140.06;;;6.87;100.00
58875;BME280;44652;49.040;12.126;2023-10-19T01:01:51;96129.59;;;6.87;100.00
58875;BME280;44652;49.040;12.126;2023-10-19T01:04:24;96137.59;;;6.96;100.00
58875;BME280;44652;49.040;12.126;2023-10-19T01:06:57;96104.34;;;6.90;100.00
58875;BME280;44652;49.040;12.126;2023-10-19T01:09:43;96126.38;;;7.04;100.00
58875;BME280;44652;49.040;12.126;2023-10-19T01:12:10;96115.00;;;7.01;100.00
58875;BME280;44652;49.040;12.126;2023-10-19T01:17:45;96106.47;;;7.16;100.00
58875;BME280;44652;49.040;12.126;2023-10-19T01:20:14;96114.31;;;7.16;100.00
58875;BME280;44652;49.040;12.126;2023-10-19T01:23:01;96140.84;;;7.36;100.00
58875;BME280;44652;49.040;12.126;2023-10-19T01:25:52;96101.97;;;7.05;100.00
58875;BME280;44652;49.040;12.126;2023-10-19T01:28:23;96109.81;;;7.05;100.00
58875;BME280;44652;49.040;12.126;2023-10-19T01:31:18;96115.13;;;7.10;100.00
58875;BME280;44652;49.040;12.126;2023-10-19T01:33:59;96093.88;;;6.92;100.00
58875;BME280;44652;49.040;12.126;2023-10-19T01:36:28;96096.59;;;6.98;100.00
58875;BME280;44652;49.040;12.126;2023-10-19T01:38:59;96094.44;;;6.71;100.00
58875;BME280;44652;49.040;12.126;2023-10-19T01:41:29;96107.91;;;6.97;100.00
58875;BME280;44652;49.040;12.126;2023-10-19T01:43:58;96098.06;;;6.79;100.00
58875;BME280;44652;49.040;12.126;2023-10-19T01:46:31;96082.16;;;6.67;100.00
58875;BME280;44652;49.040;12.126;2023-10-19T01:49:02;96088.22;;;6.66;100.00
58875;BME280;44652;49.040;12.126;2023-10-19T01:51:32;96112.28;;;6.95;100.00
58875;BME280;44652;49.040;12.126;2023-10-19T01:53:59;96100.84;;;6.90;100.00
58875;BME280;44652;49.040;12.126;2023-10-19T01:56:29;96100.88;;;6.93;100.00
58875;BME280;44652;49.040;12.126;2023-10-19T01:58:56;96079.72;;;6.79;100.00
58875;BME280;44652;49.040;12.126;2023-10-19T02:01:25;96095.25;;;6.68;100.00
58875;BME280;44652;49.040;12.126;2023-10-19T02:03:56;96079.66;;;6.76;100.00
58875;BME280;44652;49.040;12.126;2023-10-19T02:06:29;96086.84;;;6.89;100.00
58875;BME280;44652;49.040;12.126;2023-10-19T02:09:09;96071.06;;;6.85;100.00
58875;BME280;44652;49.040;12.126;2023-10-19T02:11:44;96067.56;;;6.84;100.00
58875;BME280;44652;49.040;12.126;2023-10-19T02:14:16;96074.56;;;6.85;100.00
58875;BME280;44652;49.040;12.126;2023-10-19T02:16:50;96073.00;;;6.96;100.00
58875;BME280;44652;49.040;12.126;2023-10-19T02:19:24;96065.81;;;6.83;100.00
58875;BME280;44652;49.040;12.126;2023-10-19T02:22:02;96078.13;;;6.89;100.00
58875;BME280;44652;49.040;12.126;2023-10-19T02:24:38;96080.03;;;7.00;100.00
58875;BME280;44652;49.040;12.126;2023-10-19T02:27:08;96095.84;;;7.06;100.00
58875;BME280;44652;49.040;12.126;2023-10-19T02:29:45;96087.91;;;7.00;100.00
58875;BME280;44652;49.040;12.126;2023-10-19T02:32:13;96069.53;;;6.97;100.00
58875;BME280;44652;49.040;12.126;2023-10-19T02:34:40;96071.47;;;7.12;100.00
58875;BME280;44652;49.040;12.126;2023-10-19T02:37:07;96061.69;;;6.97;100.00
58875;BME280;44652;49.040;12.126;2023-10-19T02:39:35;96038.13;;;6.97;100.00
58875;BME280;44652;49.040;12.126;2023-10-19T02:42:02;96028.53;;;6.99;100.00
58875;BME280;44652;49.040;12.126;2023-10-19T02:44:29;96026.72;;;6.95;100.00
58875;BME280;44652;49.040;12.126;2023-10-19T02:46:57;96037.34;;;7.06;100.00
58875;BME280;44652;49.040;12.126;2023-10-19T02:49:32;96039.75;;;6.92;100.00
58875;BME280;44652;49.040;12.126;2023-10-19T02:52:05;96031.94;;;6.94;100.00
58875;BME280;44652;49.040;12.126;2023-10-19T02:54:32;96055.75;;;7.12;100.00
58875;BME280;44652;49.040;12.126;2023-10-19T02:57:02;96033.06;;;7.11;100.00
58875;BME280;44652;49.040;12.126;2023-10-19T02:59:33;96047.22;;;7.24;100.00
58875;BME280;44652;49.040;12.126;2023-10-19T03:02:01;96012.00;;;7.03;100.00
58875;BME280;44652;49.040;12.126;2023-10-19T03:04:40;96036.50;;;7.07;100.00
58875;BME280;44652;49.040;12.126;2023-10-19T03:07:09;96042.72;;;7.15;100.00
58875;BME280;44652;49.040;12.126;2023-10-19T03:09:40;96033.22;;;7.22;100.00
58875;BME280;44652;49.040;12.126;2023-10-19T03:12:15;96019.03;;;7.06;100.00
58875;BME280;44652;49.040;12.126;2023-10-19T03:14:41;96012.09;;;7.11;100.00
58875;BME280;44652;49.040;12.126;2023-10-19T03:17:08;96046.25;;;7.19;100.00
58875;BME280;44652;49.040;12.126;2023-10-19T03:19:36;96041.06;;;7.22;100.00
58875;BME280;44652;49.040;12.126;2023-10-19T03:22:03;96042.75;;;7.18;100.00
58875;BME280;44652;49.040;12.126;2023-10-19T03:24:32;96046.25;;;7.17;100.00
58875;BME280;44652;49.040;12.126;2023-10-19T03:27:04;96019.03;;;7.06;100.00
58875;BME280;44652;49.040;12.126;2023-10-19T03:29:50;96046.28;;;7.20;100.00
58875;BME280;44652;49.040;12.126;2023-10-19T03:32:24;96035.88;;;7.25;100.00
58875;BME280;44652;49.040;12.126;2023-10-19T03:34:55;96013.84;;;7.11;100.00
58875;BME280;44652;49.040;12.126;2023-10-19T03:37:23;95993.66;;;7.03;100.00
58875;BME280;44652;49.040;12.126;2023-10-19T03:39:52;95978.81;;;7.04;100.00
58875;BME280;44652;49.040;12.126;2023-10-19T03:42:23;96000.03;;;7.22;100.00
58875;BME280;44652;49.040;12.126;2023-10-19T03:44:58;95984.97;;;7.06;100.00
58875;BME280;44652;49.040;12.126;2023-10-19T03:47:26;96008.81;;;7.26;100.00
58875;BME280;44652;49.040;12.126;2023-10-19T03:50:01;95999.25;;;7.29;100.00
58875;BME280;44652;49.040;12.126;2023-10-19T03:52:36;95981.53;;;7.12;100.00
58875;BME280;44652;49.040;12.126;2023-10-19T03:55:06;95969.31;;;7.12;100.00
58875;BME280;44652;49.040;12.126;2023-10-19T03:57:38;95970.38;;;7.25;100.00
58875;BME280;44652;49.040;12.126;2023-10-19T04:00:13;95972.06;;;7.20;100.00
58875;BME280;44652;49.040;12.126;2023-10-19T04:02:45;95979.19;;;7.31;100.00
58875;BME280;44652;49.040;12.126;2023-10-19T04:05:13;95979.19;;;7.31;100.00
58875;BME280;44652;49.040;12.126;2023-10-19T04:07:47;95957.22;;;7.20;100.00
58875;BME280;44652;49.040;12.126;2023-10-19T04:10:17;95963.34;;;7.21;100.00
58875;BME280;44652;49.040;12.126;2023-10-19T04:13:05;95945.00;;;7.21;100.00
58875;BME280;44652;49.040;12.126;2023-10-19T04:15:40;95975.75;;;7.36;100.00
58875;BME280;44652;49.040;12.126;2023-10-19T04:18:08;95970.50;;;7.37;100.00
58875;BME280;44652;49.040;12.126;2023-10-19T04:20:35;95968.63;;;7.27;100.00
58875;BME280;44652;49.040;12.126;2023-10-19T04:23:09;95957.31;;;7.29;100.00
58875;BME280;44652;49.040;12.126;2023-10-19T04:25:43;95916.06;;;7.12;100.00
58875;BME280;44652;49.040;12.126;2023-10-19T04:28:13;95906.63;;;7.26;100.00
58875;BME280;44652;49.040;12.126;2023-10-19T04:30:40;95916.97;;;7.14;100.00
58875;BME280;44652;49.040;12.126;2023-10-19T04:33:07;95912.69;;;7.23;100.00
58875;BME280;44652;49.040;12.126;2023-10-19T04:35:37;95889.06;;;7.19;100.00
58875;BME280;44652;49.040;12.126;2023-10-19T04:38:04;95902.25;;;7.26;100.00
58875;BME280;44652;49.040;12.126;2023-10-19T04:40:34;95892.59;;;7.21;100.00
58875;BME280;44652;49.040;12.126;2023-10-19T04:43:02;95863.72;;;7.16;100.00
58875;BME280;44652;49.040;12.126;2023-10-19T04:45:32;95883.91;;;7.26;100.00
58875;BME280;44652;49.040;12.126;2023-10-19T04:47:58;95909.38;;;7.35;100.00
58875;BME280;44652;49.040;12.126;2023-10-19T04:50:25;95896.03;;;7.17;100.00
58875;BME280;44652;49.040;12.126;2023-10-19T04:52:52;95926.75;;;7.28;100.00
58875;BME280;44652;49.040;12.126;2023-10-19T04:55:19;95927.53;;;7.23;100.00
58875;BME280;44652;49.040;12.126;2023-10-19T04:57:46;95935.38;;;7.20;100.00
58875;BME280;44652;49.040;12.126;2023-10-19T05:00:13;95916.91;;;7.09;100.00
58875;BME280;44652;49.040;12.126;2023-10-19T05:02:41;95956.59;;;7.41;100.00
58875;BME280;44652;49.040;12.126;2023-10-19T05:05:09;95972.22;;;7.32;100.00
58875;BME280;44652;49.040;12.126;2023-10-19T05:07:36;95958.97;;;7.23;100.00
58875;BME280;44652;49.040;12.126;2023-10-19T05:10:03;95962.56;;;7.31;100.00
58875;BME280;44652;49.040;12.126;2023-10-19T05:12:32;95937.03;;;7.13;100.00
58875;BME280;44652;49.040;12.126;2023-10-19T05:14:59;95956.50;;;7.34;100.00
58875;BME280;44652;49.040;12.126;2023-10-19T05:17:26;95974.88;;;7.38;100.00
58875;BME280;44652;49.040;12.126;2023-10-19T05:19:54;95987.94;;;7.32;100.00
58875;BME280;44652;49.040;12.126;2023-10-19T05:22:21;95997.81;;;7.56;100.00
58875;BME280;44652;49.040;12.126;2023-10-19T05:24:51;96007.38;;;7.52;100.00
58875;BME280;44652;49.040;12.126;2023-10-19T05:27:18;95957.28;;;7.26;100.00
58875;BME280;44652;49.040;12.126;2023-10-19T05:29:46;96001.28;;;7.52;100.00
58875;BME280;44652;49.040;12.126;2023-10-19T05:32:13;95989.81;;;7.45;100.00
58875;BME280;44652;49.040;12.126;2023-10-19T05:34:40;96001.28;;;7.53;100.00
58875;BME280;44652;49.040;12.126;2023-10-19T05:37:07;95974.97;;;7.44;100.00
58875;BME280;44652;49.040;12.126;2023-10-19T05:39:35;96012.72;;;7.59;100.00
58875;BME280;44652;49.040;12.126;2023-10-19T05:42:03;96004.81;;;7.55;100.00
58875;BME280;44652;49.040;12.126;2023-10-19T05:44:31;95976.66;;;7.41;100.00
58875;BME280;44652;49.040;12.126;2023-10-19T05:46:59;95978.59;;;7.54;100.00
58875;BME280;44652;49.040;12.126;2023-10-19T05:49:26;95985.53;;;7.52;100.00
58875;BME280;44652;49.040;12.126;2023-10-19T05:51:56;95972.44;;;7.52;100.00
58875;BME280;44652;49.040;12.126;2023-10-19T05:54:23;95955.72;;;7.41;100.00
58875;BME280;44652;49.040;12.126;2023-10-19T05:56:51;95973.16;;;7.39;100.00
58875;BME280;44652;49.040;12.126;2023-10-19T05:59:18;95926.63;;;7.19;100.00
58875;BME280;44652;49.040;12.126;2023-10-19T06:01:45;95947.06;;;7.46;100.00
58875;BME280;44652;49.040;12.126;2023-10-19T06:04:15;95956.53;;;7.37;100.00
58875;BME280;44652;49.040;12.126;2023-10-19T06:06:47;95931.13;;;7.28;100.00
58875;BME280;44652;49.040;12.126;2023-10-19T06:09:15;95916.03;;;7.10;100.00
58875;BME280;44652;49.040;12.126;2023-10-19T06:11:42;95916.19;;;7.21;100.00
58875;BME280;44652;49.040;12.126;2023-10-19T06:14:10;95918.81;;;7.22;100.00
58875;BME280;44652;49.040;12.126;2023-10-19T06:16:37;95921.47;;;7.25;100.00
58875;BME280;44652;49.040;12.126;2023-10-19T06:19:04;95909.19;;;7.20;100.00
58875;BME280;44652;49.040;12.126;2023-10-19T06:21:32;95939.97;;;7.41;100.00
58875;BME280;44652;49.040;12.126;2023-10-19T06:24:00;95929.41;;;7.33;100.00
58875;BME280;44652;49.040;12.126;2023-10-19T06:26:27;95932.13;;;7.42;100.00
58875;BME280;44652;49.040;12.126;2023-10-19T06:28:53;95952.25;;;7.45;100.00
58875;BME280;44652;49.040;12.126;2023-10-19T06:31:25;95925.03;;;7.32;100.00
58875;BME280;44652;49.040;12.126;2023-10-19T06:33:52;95933.88;;;7.42;100.00
58875;BME280;44652;49.040;12.126;2023-10-19T06:36:19;95937.56;;;7.61;100.00
58875;BME280;44652;49.040;12.126;2023-10-19T06:38:46;95912.94;;;7.43;100.00
58875;BME280;44652;49.040;12.126;2023-10-19T06:41:13;95932.28;;;7.54;100.00
58875;BME280;44652;49.040;12.126;2023-10-19T06:43:40;95939.34;;;7.62;100.00
58875;BME280;44652;49.040;12.126;2023-10-19T06:46:08;95946.31;;;7.58;100.00
58875;BME280;44652;49.040;12.126;2023-10-19T06:48:39;95948.00;;;7.56;100.00
58875;BME280;44652;49.040;12.126;2023-10-19T06:51:06;95916.44;;;7.45;100.00
58875;BME280;44652;49.040;12.126;2023-10-19T06:53:33;95938.31;;;7.47;100.00
58875;BME280;44652;49.040;12.126;2023-10-19T06:56:01;95920.88;;;7.52;100.00
58875;BME280;44652;49.040;12.126;2023-10-19T06:58:27;95906.06;;;7.54;100.00
58875;BME280;44652;49.040;12.126;2023-10-19T07:00:54;95913.91;;;7.51;100.00
58875;BME280;44652;49.040;12.126;2023-10-19T07:03:27;95930.69;;;7.70;100.00
58875;BME280;44652;49.040;12.126;2023-10-19T07:05:57;95932.47;;;7.74;100.00
58875;BME280;44652;49.040;12.126;2023-10-19T07:08:24;95960.56;;;7.88;100.00
58875;BME280;44652;49.040;12.126;2023-10-19T07:10:53;95931.63;;;7.77;100.00
58875;BME280;44652;49.040;12.126;2023-10-19T07:13:20;95944.81;;;7.86;100.00
58875;BME280;44652;49.040;12.126;2023-10-19T07:15:48;95934.25;;;7.80;100.00
58875;BME280;44652;49.040;12.126;2023-10-19T07:18:15;95949.13;;;7.79;100.00
58875;BME280;44652;49.040;12.126;2023-10-19T07:20:43;95937.78;;;7.82;100.00
58875;BME280;44652;49.040;12.126;2023-10-19T07:23:10;95944.75;;;7.78;100.00
58875;BME280;44652;49.040;12.126;2023-10-19T07:25:37;95922.88;;;7.73;100.00
58875;BME280;44652;49.040;12.126;2023-10-19T07:28:15;95938.75;;;7.90;100.00
58875;BME280;44652;49.040;12.126;2023-10-19T07:30:43;95936.16;;;7.92;100.00
58875;BME280;44652;49.040;12.126;2023-10-19T07:33:11;95908.06;;;7.82;100.00
58875;BME280;44652;49.040;12.126;2023-10-19T07:35:47;95936.22;;;8.01;100.00
58875;BME280;44652;49.040;12.126;2023-10-19T07:38:18;95937.13;;;8.04;99.34
58875;BME280;44652;49.040;12.126;2023-10-19T07:40:48;95935.31;;;7.96;99.47
58875;BME280;44652;49.040;12.126;2023-10-19T07:43:15;95912.53;;;7.89;99.94
58875;BME280;44652;49.040;12.126;2023-10-19T07:45:42;95915.22;;;7.98;98.81
58875;BME280;44652;49.040;12.126;2023-10-19T07:48:09;95933.75;;;8.15;99.28
58875;BME280;44652;49.040;12.126;2023-10-19T07:50:40;95913.56;;;8.09;98.23
58875;BME280;44652;49.040;12.126;2023-10-19T07:53:09;95917.16;;;8.20;98.92
58875;BME280;44652;49.040;12.126;2023-10-19T07:55:36;95912.88;;;8.30;98.59
58875;BME280;44652;49.040;12.126;2023-10-19T07:58:05;95927.94;;;8.56;98.26
58875;BME280;44652;49.040;12.126;2023-10-19T08:00:35;95928.84;;;8.56;96.00
58875;BME280;44652;49.040;12.126;2023-10-19T08:03:03;95907.78;;;8.50;94.85
58875;BME280;44652;49.040;12.126;2023-10-19T08:05:34;95911.38;;;8.64;95.71
58875;BME280;44652;49.040;12.126;2023-10-19T08:08:02;95913.06;;;8.59;93.57
58875;BME280;44652;49.040;12.126;2023-10-19T08:10:31;95928.06;;;8.77;94.63
58875;BME280;44652;49.040;12.126;2023-10-19T08:12:58;95907.91;;;8.74;94.04
58875;BME280;44652;49.040;12.126;2023-10-19T08:15:26;95933.47;;;9.03;94.07
58875;BME280;44652;49.040;12.126;2023-10-19T08:17:55;95922.94;;;8.97;93.62
58875;BME280;44652;49.040;12.126;2023-10-19T08:20:22;95930.94;;;9.17;93.66
58875;BME280;44652;49.040;12.126;2023-10-19T08:23:01;95897.56;;;9.05;91.47
58875;BME280;44652;49.040;12.126;2023-10-19T08:25:29;95902.00;;;9.14;91.50
58875;BME280;44652;49.040;12.126;2023-10-19T08:28:16;95902.91;;;9.31;92.04
58875;BME280;44652;49.040;12.126;2023-10-19T08:30:44;95909.97;;;9.40;91.74
58875;BME280;44652;49.040;12.126;2023-10-19T08:33:24;95906.44;;;9.35;90.83
58875;BME280;44652;49.040;12.126;2023-10-19T08:35:54;95894.13;;;9.23;90.84
58875;BME280;44652;49.040;12.126;2023-10-19T08:38:21;95909.97;;;9.40;91.52
58875;BME280;44652;49.040;12.126;2023-10-19T08:40:48;95921.41;;;9.56;91.15
58875;BME280;44652;49.040;12.126;2023-10-19T08:43:17;95895.94;;;9.38;90.92
58875;BME280;44652;49.040;12.126;2023-10-19T08:45:45;95914.44;;;9.62;90.82
58875;BME280;44652;49.040;12.126;2023-10-19T08:48:12;95910.91;;;9.62;90.40
58875;BME280;44652;49.040;12.126;2023-10-19T08:50:39;95916.16;;;9.60;90.12
58875;BME280;44652;49.040;12.126;2023-10-19T08:53:07;95894.25;;;9.60;90.48
58875;BME280;44652;49.040;12.126;2023-10-19T08:55:41;95903.06;;;9.92;90.42
58875;BME280;44652;49.040;12.126;2023-10-19T08:58:16;95898.66;;;9.96;90.49
58875;BME280;44652;49.040;12.126;2023-10-19T09:00:50;95876.75;;;9.88;88.83
58875;BME280;44652;49.040;12.126;2023-10-19T09:03:26;95874.09;;;9.88;89.53
58875;BME280;44652;49.040;12.126;2023-10-19T09:05:54;95880.25;;;10.11;89.13
58875;BME280;44652;49.040;12.126;2023-10-19T09:08:22;95879.41;;;10.08;89.02
58875;BME280;44652;49.040;12.126;2023-10-19T09:10:50;95875.88;;;10.07;88.77
58875;BME280;44652;49.040;12.126;2023-10-19T09:13:20;95875.00;;;10.16;88.27
58875;BME280;44652;49.040;12.126;2023-10-19T09:15:49;95873.28;;;10.26;89.64
58875;BME280;44652;49.040;12.126;2023-10-19T09:18:22;95889.91;;;10.52;88.36
58875;BME280;44652;49.040;12.126;2023-10-19T09:20:51;95898.72;;;10.42;87.95
58875;BME280;44652;49.040;12.126;2023-10-19T09:23:29;95884.69;;;10.46;88.58
58875;BME280;44652;49.040;12.126;2023-10-19T09:25:57;95874.13;;;10.44;88.72
58875;BME280;44652;49.040;12.126;2023-10-19T09:28:24;95896.94;;;10.59;87.81
58875;BME280;44652;49.040;12.126;2023-10-19T09:30:52;95910.97;;;10.80;87.97
58875;BME280;44652;49.040;12.126;2023-10-19T09:33:21;95890.75;;;10.77;87.03
58875;BME280;44652;49.040;12.126;2023-10-19T09:35:49;95904.75;;;10.98;87.22
58875;BME280;44652;49.040;12.126;2023-10-19T09:38:17;95906.47;;;11.09;86.43
58875;BME280;44652;49.040;12.126;2023-10-19T09:40:53;95907.34;;;11.14;84.96
58875;BME280;44652;49.040;12.126;2023-10-19T09:43:30;95904.72;;;11.10;85.29
58875;BME280;44652;49.040;12.126;2023-10-19T09:46:01;95894.19;;;11.04;85.98
58875;BME280;44652;49.040;12.126;2023-10-19T09:48:38;95912.69;;;10.96;85.86
58875;BME280;44652;49.040;12.126;2023-10-19T09:51:05;95902.16;;;10.85;85.33
58875;BME280;44652;49.040;12.126;2023-10-19T09:53:42;95913.59;;;10.84;85.95
58875;BME280;44652;49.040;12.126;2023-10-19T09:56:14;95926.75;;;10.95;86.22
58875;BME280;44652;49.040;12.126;2023-10-19T09:58:48;95897.78;;;10.78;86.46
58875;BME280;44652;49.040;12.126;2023-10-19T10:01:16;95924.97;;;10.95;86.00
58875;BME280;44652;49.040;12.126;2023-10-19T10:06:17;95915.28;;;11.04;86.39
58875;BME280;44652;49.040;12.126;2023-10-19T10:08:53;95883.63;;;11.02;84.83
58875;BME280;44652;49.040;12.126;2023-10-19T10:11:24;95867.84;;;11.01;86.25
58875;BME280;44652;49.040;12.126;2023-10-19T10:13:55;95876.63;;;11.01;86.04
58875;BME280;44652;49.040;12.126;2023-10-19T10:16:26;95891.53;;;11.05;86.67
58875;BME280;44652;49.040;12.126;2023-10-19T10:19:04;95870.47;;;10.98;86.10
58875;BME280;44652;49.040;12.126;2023-10-19T10:21:31;95879.28;;;11.00;86.17
58875;BME280;44652;49.040;12.126;2023-10-19T10:24:03;95863.50;;;10.86;86.42
58875;BME280;44652;49.040;12.126;2023-10-19T10:26:31;95870.50;;;10.94;87.37
58875;BME280;44652;49.040;12.126;2023-10-19T10:29:23;95860.88;;;10.78;88.51
58875;BME280;44652;49.040;12.126;2023-10-19T10:31:50;95862.63;;;10.79;89.33
58875;BME280;44652;49.040;12.126;2023-10-19T10:37:12;95859.22;;;10.50;90.90
58875;BME280;44652;49.040;12.126;2023-10-19T10:39:40;95854.81;;;10.48;90.70
58875;BME280;44652;49.040;12.126;2023-10-19T10:42:09;95851.28;;;10.59;91.86
58875;BME280;44652;49.040;12.126;2023-10-19T10:44:49;95844.22;;;10.71;91.80
58875;BME280;44652;49.040;12.126;2023-10-19T10:47:20;95865.25;;;10.90;92.15
58875;BME280;44652;49.040;12.126;2023-10-19T10:49:57;95830.13;;;10.83;94.00
58875;BME280;44652;49.040;12.126;2023-10-19T10:52:31;95852.94;;;10.96;94.08
58875;BME280;44652;49.040;12.126;2023-10-19T10:55:06;95815.22;;;10.71;93.76
58875;BME280;44652;49.040;12.126;2023-10-19T10:57:33;95824.88;;;10.80;94.52
58875;BME280;44652;49.040;12.126;2023-10-19T11:00:02;95825.72;;;10.87;94.76
58875;BME280;44652;49.040;12.126;2023-10-19T11:02:30;95811.78;;;10.48;93.92
58875;BME280;44652;49.040;12.126;2023-10-19T11:04:57;95816.16;;;10.66;96.19
58875;BME280;44652;49.040;12.126;2023-10-19T11:07:24;95816.19;;;10.54;95.70
58875;BME280;44652;49.040;12.126;2023-10-19T11:09:52;95817.94;;;10.47;96.88
58875;BME280;44652;49.040;12.126;2023-10-19T11:12:21;95814.44;;;10.22;98.68
58875;BME280;44652;49.040;12.126;2023-10-19T11:14:52;95801.28;;;10.22;100.00
58875;BME280;44652;49.040;12.126;2023-10-19T11:17:20;95806.56;;;10.17;99.15
58875;BME280;44652;49.040;12.126;2023-10-19T11:19:55;95767.97;;;10.03;100.00
58875;BME280;44652;49.040;12.126;2023-10-19T11:22:26;95774.97;;;10.11;100.00
58875;BME280;44652;49.040;12.126;2023-10-19T11:24:53;95786.38;;;10.07;100.00
58875;BME280;44652;49.040;12.126;2023-10-19T11:27:28;95755.72;;;9.88;100.00
58875;BME280;44652;49.040;12.126;2023-10-19T11:29:59;95752.19;;;9.92;100.00
58875;BME280;44652;49.040;12.126;2023-10-19T11:32:37;95755.72;;;9.94;100.00
58875;BME280;44652;49.040;12.126;2023-10-19T11:35:07;95733.81;;;9.78;100.00
58875;BME280;44652;49.040;12.126;2023-10-19T11:37:50;95762.72;;;9.92;100.00
58875;BME280;44652;49.040;12.126;2023-10-19T11:40:23;95742.56;;;9.83;100.00
58875;BME280;44652;49.040;12.126;2023-10-19T11:42:50;95745.22;;;9.79;100.00
58875;BME280;44652;49.040;12.126;2023-10-19T11:45:17;95771.47;;;10.03;100.00
58875;BME280;44652;49.040;12.126;2023-10-19T11:47:45;95767.97;;;10.06;100.00
58875;BME280;44652;49.040;12.126;2023-10-19T11:50:12;95737.28;;;9.95;100.00
58875;BME280;44652;49.040;12.126;2023-10-19T11:52:42;95730.28;;;9.90;100.00
58875;BME280;44652;49.040;12.126;2023-10-19T11:55:09;95760.94;;;10.23;100.00
58875;BME280;44652;49.040;12.126;2023-10-19T11:57:36;95738.13;;;10.17;100.00
58875;BME280;44652;49.040;12.126;2023-10-19T12:00:03;95740.75;;;10.33;100.00
58875;BME280;44652;49.040;12.126;2023-10-19T12:02:37;95723.16;;;10.38;100.00
58875;BME280;44652;49.040;12.126;2023-10-19T12:05:05;95736.22;;;10.64;100.00
58875;BME280;44652;49.040;12.126;2023-10-19T12:07:40;95707.38;;;10.33;100.00
58875;BME280;44652;49.040;12.126;2023-10-19T12:10:10;95709.13;;;10.39;100.00
58875;BME280;44652;49.040;12.126;2023-10-19T12:12:38;95709.94;;;10.48;100.00
58875;BME280;44652;49.040;12.126;2023-10-19T12:15:25;95735.28;;;10.82;100.00
58875;BME280;44652;49.040;12.126;2023-10-19T12:17:52;95706.28;;;10.79;100.00
58875;BME280;44652;49.040;12.126;2023-10-19T12:20:21;95726.47;;;10.86;99.72
58875;BME280;44652;49.040;12.126;2023-10-19T12:22:49;95719.25;;;11.18;100.00
58875;BME280;44652;49.040;12.126;2023-10-19T12:25:20;95691.19;;;11.05;100.00
58875;BME280;44652;49.040;12.126;2023-10-19T12:28:00;95677.22;;;10.95;99.25
58875;BME280;44652;49.040;12.126;2023-10-19T12:30:27;95684.22;;;10.98;100.00
58875;BME280;44652;49.040;12.126;2023-10-19T12:33:05;95660.41;;;11.15;100.00
58875;BME280;44652;49.040;12.126;2023-10-19T12:35:40;95689.28;;;11.27;99.67
58875;BME280;44652;49.040;12.126;2023-10-19T12:38:18;95674.22;;;11.43;98.28
58875;BME280;44652;49.040;12.126;2023-10-19T12:40:47;95715.50;;;11.50;100.00
58875;BME280;44652;49.040;12.126;2023-10-19T12:43:14;95706.66;;;11.54;98.59
58875;BME280;44652;49.040;12.126;2023-10-19T12:45:42;95705.84;;;11.49;98.71
58875;BME280;44652;49.040;12.126;2023-10-19T12:48:10;95701.44;;;11.47;98.32
58875;BME280;44652;49.040;12.126;2023-10-19T12:50:38;95681.34;;;11.29;99.19
58875;BME280;44652;49.040;12.126;2023-10-19T12:53:05;95691.88;;;11.32;100.00
58875;BME280;44652;49.040;12.126;2023-10-19T12:55:33;95679.69;;;11.22;98.47
58875;BME280;44652;49.040;12.126;2023-10-19T12:58:01;95686.69;;;11.24;98.69
58875;BME280;44652;49.040;12.126;2023-10-19T13:00:34;95684.09;;;11.18;99.57
58875;BME280;44652;49.040;12.126;2023-10-19T13:03:15;95714.72;;;11.36;98.76
58875;BME280;44652;49.040;12.126;2023-10-19T13:05:45;95694.53;;;11.29;100.00
58875;BME280;44652;49.040;12.126;2023-10-19T13:08:14;95687.50;;;11.34;98.48
58875;BME280;44652;49.040;12.126;2023-10-19T13:10:42;95701.41;;;11.53;98.45
58875;BME280;44652;49.040;12.126;2023-10-19T13:13:11;95710.34;;;11.32;100.00
58875;BME280;44652;49.040;12.126;2023-10-19T13:15:40;95704.09;;;11.43;99.96